Time;durP1;ratioP1;P1;durP2;ratioP2;P2;SDS_P1;SDS_P2;PMS_P1;PMS_P2;Temp;Humidity;BMP_temperature;BMP_pressure;BME280_temperature;BME280_humidity;BME280_pressure;Samples;Min_cycle;Max_cycle;Signal;HPM_P1;HPM_P2
2022/10/28 00:02:16;;;;;;;;;;;16.00;99.90;;;;;;5080904;28;20325;-71
2022/10/28 00:04:48;;;;;;;;;;;16.00;99.90;;;;;;5095811;28;20274;-71
2022/10/28 00:07:35;;;;;;;;;;;16.00;99.90;;;;;;5081687;28;20056;-71
2022/10/28 00:10:10;;;;;;;;;;;16.00;99.90;;;;;;5091213;28;20351;-71
2022/10/28 00:13:26;;;;;;;;;;;16.00;99.90;;;;;;5079863;28;19913;-71
2022/10/28 00:15:42;;;;;;;;;;;16.00;99.90;;;;;;5071972;28;19912;-72
2022/10/28 00:18:17;;;;;;;;;;;15.80;99.90;;;;;;5089973;28;19912;-70
2022/10/28 00:23:48;;;;;;;;;;;15.90;99.90;;;;;;5076141;28;20025;-71
2022/10/28 00:26:59;;;;;;;;;;;;;;;;;;;;;
2022/10/28 00:32:39;;;;;;;;;;;16.00;99.90;;;;;;5019722;28;20393;-71
2022/10/28 00:35:31;;;;;;;;;;;16.00;99.90;;;;;;5082074;28;20302;-71
2022/10/28 00:38:08;;;;;;;;;;;15.80;99.90;;;;;;5074252;28;19975;-71
2022/10/28 00:40:40;;;;;;;;;;;15.90;99.90;;;;;;5061261;28;19936;-71
2022/10/28 00:43:14;;;;;;;;;;;15.90;99.90;;;;;;5078397;28;20354;-71
2022/10/28 00:45:56;;;;;;;;;;;15.80;99.90;;;;;;5067304;28;19934;-71
2022/10/28 00:48:27;;;;;;;;;;;15.90;99.90;;;;;;5080171;28;20351;-71
2022/10/28 00:50:59;;;;;;;;;;;15.90;99.90;;;;;;5087048;28;19912;-70
2022/10/28 00:53:36;;;;;;;;;;;15.80;99.90;;;;;;5082592;28;19920;-71
2022/10/28 00:56:13;;;;;;;;;;;15.80;99.90;;;;;;5094734;28;20489;-72
2022/10/28 00:58:42;;;;;;;;;;;15.80;99.90;;;;;;5076319;28;19916;-71
2022/10/28 01:01:19;;;;;;;;;;;15.90;99.90;;;;;;5079141;28;19938;-71
2022/10/28 01:03:48;;;;;;;;;;;15.90;99.90;;;;;;5076675;28;19908;-71
2022/10/28 01:06:25;;;;;;;;;;;15.80;99.90;;;;;;5081733;28;20494;-71
2022/10/28 01:08:56;;;;;;;;;;;15.60;99.90;;;;;;5084914;28;20382;-71
2022/10/28 01:11:30;;;;;;;;;;;15.50;99.90;;;;;;5070330;28;20413;-71
2022/10/28 01:14:19;;;;;;;;;;;15.50;99.90;;;;;;5072682;28;20652;-71
2022/10/28 01:17:10;;;;;;;;;;;15.40;99.90;;;;;;5060382;28;19913;-71
2022/10/28 01:20:26;;;;;;;;;;;;;;;;;;;;;
2022/10/28 01:22:59;;;;;;;;;;;15.30;99.90;;;;;;5092364;28;19948;-71
2022/10/28 01:25:57;;;;;;;;;;;15.20;99.90;;;;;;5102132;28;19950;-71
2022/10/28 01:28:42;;;;;;;;;;;15.20;99.90;;;;;;5044152;28;19915;-71
2022/10/28 01:31:32;;;;;;;;;;;15.20;99.90;;;;;;5062274;28;19913;-71
2022/10/28 01:34:18;;;;;;;;;;;15.10;99.90;;;;;;5068879;28;19919;-71
2022/10/28 01:36:56;;;;;;;;;;;15.20;99.90;;;;;;5089532;28;19936;-72
2022/10/28 01:39:39;;;;;;;;;;;15.20;99.90;;;;;;5086272;28;19912;-71
2022/10/28 01:42:46;;;;;;;;;;;15.10;99.90;;;;;;5065633;28;20267;-71
2022/10/28 01:48:43;;;;;;;;;;;15.10;99.90;;;;;;5064926;28;19912;-71
2022/10/28 01:52:28;;;;;;;;;;;15.10;99.90;;;;;;5061863;28;19955;-71
2022/10/28 01:54:36;;;;;;;;;;;15.00;99.90;;;;;;5006826;28;20495;-71
2022/10/28 01:57:17;;;;;;;;;;;15.00;99.90;;;;;;5048904;28;19913;-71
2022/10/28 01:59:52;;;;;;;;;;;15.00;99.90;;;;;;5101939;28;19916;-71
2022/10/28 02:02:34;;;;;;;;;;;15.00;99.90;;;;;;5068607;28;19914;-71
2022/10/28 02:05:29;;;;;;;;;;;15.00;99.90;;;;;;5082771;28;19917;-72
2022/10/28 02:08:14;;;;;;;;;;;15.10;99.90;;;;;;5030536;28;19912;-71
2022/10/28 02:11:00;;;;;;;;;;;15.00;99.90;;;;;;5081950;28;19999;-73
2022/10/28 02:13:49;;;;;;;;;;;15.00;99.90;;;;;;5067712;28;20448;-71
2022/10/28 02:16:44;;;;;;;;;;;14.90;99.90;;;;;;5064001;28;19912;-71
2022/10/28 02:19:30;;;;;;;;;;;14.90;99.90;;;;;;5089719;28;19912;-71
2022/10/28 02:22:19;;;;;;;;;;;14.90;99.90;;;;;;5084818;28;19936;-71
2022/10/28 02:25:04;;;;;;;;;;;14.90;99.90;;;;;;5107624;28;19908;-71
2022/10/28 02:27:59;;;;;;;;;;;14.80;99.90;;;;;;5093504;28;19930;-71
2022/10/28 02:30:52;;;;;;;;;;;14.80;99.90;;;;;;5051814;28;20337;-71
2022/10/28 02:33:30;;;;;;;;;;;14.80;99.90;;;;;;5074715;28;19935;-71
2022/10/28 02:36:02;;;;;;;;;;;14.90;99.90;;;;;;5098453;28;19916;-71
2022/10/28 02:39:01;;;;;;;;;;;14.90;99.90;;;;;;5089756;28;19913;-72
2022/10/28 02:41:44;;;;;;;;;;;14.90;99.90;;;;;;5087306;28;19935;-71
2022/10/28 02:44:16;;;;;;;;;;;15.00;99.90;;;;;;5106990;28;19919;-71
2022/10/28 02:46:49;;;;;;;;;;;14.90;99.90;;;;;;5077169;28;19939;-71
2022/10/28 02:49:18;;;;;;;;;;;14.80;99.90;;;;;;5091026;28;19912;-71
2022/10/28 02:51:51;;;;;;;;;;;14.70;99.90;;;;;;5075784;28;19951;-71
2022/10/28 02:54:23;;;;;;;;;;;14.80;99.90;;;;;;5088438;28;19916;-71
2022/10/28 02:56:55;;;;;;;;;;;14.90;99.90;;;;;;5095965;28;19936;-71
2022/10/28 02:59:27;;;;;;;;;;;15.10;99.90;;;;;;5088622;28;19932;-71
2022/10/28 03:01:56;;;;;;;;;;;15.20;99.90;;;;;;5092768;28;19912;-71
2022/10/28 03:04:28;;;;;;;;;;;15.20;99.90;;;;;;5092728;28;19908;-71
2022/10/28 03:07:02;;;;;;;;;;;15.20;99.90;;;;;;5073519;28;20814;-71
2022/10/28 03:09:33;;;;;;;;;;;15.10;99.90;;;;;;5087290;28;19982;-71
2022/10/28 03:11:59;;;;;;;;;;;15.00;99.90;;;;;;5073649;28;19920;-73
2022/10/28 03:14:25;;;;;;;;;;;14.90;99.90;;;;;;5079790;28;19908;-74
2022/10/28 03:16:51;;;;;;;;;;;14.80;99.90;;;;;;5067294;28;20453;-74
2022/10/28 03:19:17;;;;;;;;;;;14.70;99.90;;;;;;5093377;28;19993;-74
2022/10/28 03:21:43;;;;;;;;;;;14.70;99.90;;;;;;5066205;28;19919;-74
2022/10/28 03:24:10;;;;;;;;;;;14.80;99.90;;;;;;5081947;28;20697;-74
2022/10/28 03:26:36;;;;;;;;;;;14.80;99.90;;;;;;5084198;28;19913;-74
2022/10/28 03:29:01;;;;;;;;;;;14.80;99.90;;;;;;5082744;28;19963;-74
2022/10/28 03:31:27;;;;;;;;;;;14.80;99.90;;;;;;5071074;28;19954;-73
2022/10/28 03:33:53;;;;;;;;;;;14.70;99.90;;;;;;5084984;28;19923;-73
2022/10/28 03:36:19;;;;;;;;;;;14.70;99.90;;;;;;5083043;28;19913;-75
2022/10/28 03:38:45;;;;;;;;;;;14.70;99.90;;;;;;5083437;28;19919;-75
2022/10/28 03:41:10;;;;;;;;;;;14.70;99.90;;;;;;5081424;28;19939;-74
2022/10/28 03:43:36;;;;;;;;;;;14.70;99.90;;;;;;5087218;28;20342;-75
2022/10/28 03:46:02;;;;;;;;;;;14.60;99.90;;;;;;5052410;28;19920;-73
2022/10/28 03:48:28;;;;;;;;;;;14.70;99.90;;;;;;5074021;28;20566;-74
2022/10/28 03:50:54;;;;;;;;;;;14.70;99.90;;;;;;5081905;28;20011;-76
2022/10/28 03:53:21;;;;;;;;;;;14.70;99.90;;;;;;5069877;28;19930;-74
2022/10/28 03:55:53;;;;;;;;;;;14.80;99.90;;;;;;5073937;28;19913;-73
2022/10/28 03:58:19;;;;;;;;;;;14.80;99.90;;;;;;5072627;28;19919;-74
2022/10/28 04:00:46;;;;;;;;;;;14.80;99.90;;;;;;5056521;28;19913;-74
2022/10/28 04:03:12;;;;;;;;;;;14.80;99.90;;;;;;5069933;28;20015;-74
2022/10/28 04:05:38;;;;;;;;;;;14.70;99.90;;;;;;5052789;28;20365;-74
2022/10/28 04:08:03;;;;;;;;;;;14.70;99.90;;;;;;5053139;28;19927;-74
2022/10/28 04:10:29;;;;;;;;;;;14.70;99.90;;;;;;5050703;28;20387;-73
2022/10/28 04:12:59;;;;;;;;;;;14.60;99.90;;;;;;5054039;28;20406;-73
2022/10/28 04:15:25;;;;;;;;;;;14.70;99.90;;;;;;5067324;28;19940;-73
2022/10/28 04:17:51;;;;;;;;;;;14.60;99.90;;;;;;5053336;28;20071;-73
2022/10/28 04:20:17;;;;;;;;;;;14.70;99.90;;;;;;5090499;28;19972;-73
2022/10/28 04:22:44;;;;;;;;;;;14.70;99.90;;;;;;5078839;28;19912;-73
2022/10/28 04:25:10;;;;;;;;;;;14.60;99.90;;;;;;5067679;28;19920;-75
2022/10/28 04:27:36;;;;;;;;;;;14.50;99.90;;;;;;5067744;28;20322;-73
2022/10/28 04:30:01;;;;;;;;;;;14.60;99.90;;;;;;5070603;28;19970;-73
2022/10/28 04:32:27;;;;;;;;;;;14.80;99.90;;;;;;5051428;28;19912;-73
2022/10/28 04:34:53;;;;;;;;;;;14.80;99.90;;;;;;5065198;28;22050;-73
2022/10/28 04:37:19;;;;;;;;;;;14.80;99.90;;;;;;5068968;28;19913;-73
2022/10/28 04:39:45;;;;;;;;;;;14.80;99.90;;;;;;5049648;28;20379;-74
2022/10/28 04:42:11;;;;;;;;;;;14.70;99.90;;;;;;5070059;28;20564;-73
2022/10/28 04:44:36;;;;;;;;;;;14.80;99.90;;;;;;5070702;28;20402;-74
2022/10/28 04:47:02;;;;;;;;;;;14.70;99.90;;;;;;5062859;28;20534;-73
2022/10/28 04:49:28;;;;;;;;;;;14.80;99.90;;;;;;5088903;28;20382;-73
2022/10/28 04:51:53;;;;;;;;;;;14.80;99.90;;;;;;5089690;28;19916;-74
2022/10/28 04:54:19;;;;;;;;;;;14.90;99.90;;;;;;5087878;28;19909;-73
2022/10/28 04:56:45;;;;;;;;;;;14.90;99.90;;;;;;5055636;28;20007;-73
2022/10/28 04:59:11;;;;;;;;;;;14.80;99.90;;;;;;5075196;28;19966;-73
2022/10/28 05:01:36;;;;;;;;;;;14.90;99.90;;;;;;5071367;28;20590;-74
2022/10/28 05:04:02;;;;;;;;;;;14.80;99.90;;;;;;5068756;28;19919;-74
2022/10/28 05:06:28;;;;;;;;;;;14.80;99.90;;;;;;5067114;28;19921;-73
2022/10/28 05:08:54;;;;;;;;;;;14.70;99.90;;;;;;5068397;28;20274;-73
2022/10/28 05:11:19;;;;;;;;;;;14.70;99.90;;;;;;5057346;28;20367;-75
2022/10/28 05:13:45;;;;;;;;;;;14.70;99.90;;;;;;5056717;28;20427;-74
2022/10/28 05:16:11;;;;;;;;;;;14.70;99.90;;;;;;5069948;28;19921;-74
2022/10/28 05:18:37;;;;;;;;;;;14.70;99.90;;;;;;5056154;28;19912;-76
2022/10/28 05:21:02;;;;;;;;;;;14.70;99.90;;;;;;5067911;28;19912;-74
2022/10/28 05:23:31;;;;;;;;;;;14.70;99.90;;;;;;5067456;28;19965;-74
2022/10/28 05:25:57;;;;;;;;;;;14.80;99.90;;;;;;5067993;28;19958;-74
2022/10/28 05:28:23;;;;;;;;;;;14.70;99.90;;;;;;5048521;28;19917;-74
2022/10/28 05:30:49;;;;;;;;;;;14.60;99.90;;;;;;5056823;28;19960;-75
2022/10/28 05:33:18;;;;;;;;;;;14.60;99.90;;;;;;5067499;28;20289;-74
2022/10/28 05:35:43;;;;;;;;;;;14.50;99.90;;;;;;5066248;28;20301;-76
2022/10/28 05:38:09;;;;;;;;;;;14.50;99.90;;;;;;5068537;28;19916;-74
2022/10/28 05:40:35;;;;;;;;;;;14.50;99.90;;;;;;5083473;28;20396;-74
2022/10/28 05:43:01;;;;;;;;;;;14.50;99.90;;;;;;5083991;28;19970;-74
2022/10/28 05:45:27;;;;;;;;;;;14.50;99.90;;;;;;5078694;28;20322;-74
2022/10/28 05:47:53;;;;;;;;;;;14.50;99.90;;;;;;5061576;28;19912;-74
2022/10/28 05:50:19;;;;;;;;;;;14.50;99.90;;;;;;5068580;28;19916;-74
2022/10/28 05:52:46;;;;;;;;;;;14.60;99.90;;;;;;5064792;28;20298;-74
2022/10/28 05:55:18;;;;;;;;;;;14.80;99.90;;;;;;5053081;28;19924;-75
2022/10/28 05:57:44;;;;;;;;;;;14.90;99.90;;;;;;5070910;28;19916;-74
2022/10/28 06:00:11;;;;;;;;;;;14.90;99.90;;;;;;5052627;28;20005;-73
2022/10/28 06:02:36;;;;;;;;;;;15.00;99.90;;;;;;5074087;28;20426;-73
2022/10/28 06:05:02;;;;;;;;;;;14.90;99.90;;;;;;5079082;28;19920;-72
2022/10/28 06:07:28;;;;;;;;;;;14.90;99.90;;;;;;5072880;28;20374;-73
2022/10/28 06:09:54;;;;;;;;;;;14.90;99.90;;;;;;5076725;28;19996;-72
2022/10/28 06:12:20;;;;;;;;;;;14.80;99.90;;;;;;5081591;28;20441;-72
2022/10/28 06:14:46;;;;;;;;;;;14.90;99.90;;;;;;5059341;28;20321;-72
2022/10/28 06:17:14;;;;;;;;;;;14.90;99.90;;;;;;5077295;28;19912;-73
2022/10/28 06:19:40;;;;;;;;;;;14.90;99.90;;;;;;5059060;28;19915;-72
2022/10/28 06:22:06;;;;;;;;;;;14.90;99.90;;;;;;5074438;28;19913;-73
2022/10/28 06:24:32;;;;;;;;;;;15.00;99.90;;;;;;5076467;28;19908;-73
2022/10/28 06:26:57;;;;;;;;;;;15.00;99.90;;;;;;5075838;28;20366;-73
2022/10/28 06:29:23;;;;;;;;;;;15.10;99.90;;;;;;5067977;28;20388;-72
2022/10/28 06:31:49;;;;;;;;;;;15.10;99.90;;;;;;5094056;28;20001;-72
2022/10/28 06:34:15;;;;;;;;;;;15.20;99.90;;;;;;5086643;28;20358;-72
2022/10/28 06:36:40;;;;;;;;;;;15.10;99.90;;;;;;5076186;28;20394;-72
2022/10/28 06:39:06;;;;;;;;;;;15.10;99.90;;;;;;5074113;28;19913;-72
2022/10/28 06:41:32;;;;;;;;;;;15.10;99.90;;;;;;5071493;28;20378;-73
2022/10/28 06:43:57;;;;;;;;;;;15.10;99.90;;;;;;5076473;28;19988;-73
2022/10/28 06:46:23;;;;;;;;;;;15.20;99.90;;;;;;5076787;28;20430;-72
2022/10/28 06:48:49;;;;;;;;;;;15.30;99.90;;;;;;5079277;28;19912;-72
2022/10/28 06:51:16;;;;;;;;;;;15.30;99.90;;;;;;5071291;28;19913;-72
2022/10/28 06:53:42;;;;;;;;;;;15.50;99.90;;;;;;5076883;28;19913;-72
2022/10/28 06:56:08;;;;;;;;;;;15.70;99.90;;;;;;5076648;28;19912;-72
2022/10/28 06:58:33;;;;;;;;;;;15.70;99.90;;;;;;5076621;28;20358;-72
2022/10/28 07:01:03;;;;;;;;;;;15.80;99.90;;;;;;5070667;28;20374;-72
2022/10/28 07:03:29;;;;;;;;;;;15.80;99.90;;;;;;5058667;28;19935;-72
2022/10/28 07:05:54;;;;;;;;;;;16.00;99.90;;;;;;5058009;28;19913;-72
2022/10/28 07:08:20;;;;;;;;;;;16.00;99.90;;;;;;5064275;28;20589;-73
2022/10/28 07:10:53;;;;;;;;;;;16.00;99.90;;;;;;5049894;28;19959;-72
2022/10/28 07:13:19;;;;;;;;;;;16.10;99.90;;;;;;5087483;28;20352;-71
2022/10/28 07:15:49;;;;;;;;;;;16.10;99.90;;;;;;5083937;28;19916;-73
2022/10/28 07:18:15;;;;;;;;;;;16.10;99.90;;;;;;5069447;28;19935;-72
2022/10/28 07:20:40;;;;;;;;;;;16.20;99.90;;;;;;5081332;28;20378;-71
2022/10/28 07:23:07;;;;;;;;;;;16.20;99.90;;;;;;5087455;28;19909;-71
2022/10/28 07:25:32;;;;;;;;;;;16.30;99.90;;;;;;5080572;28;20441;-73
2022/10/28 07:27:58;;;;;;;;;;;16.50;99.90;;;;;;5084828;28;19940;-72
2022/10/28 07:30:24;;;;;;;;;;;16.50;99.90;;;;;;5084811;28;19916;-72
2022/10/28 07:32:50;;;;;;;;;;;16.60;99.90;;;;;;5081233;28;20023;-72
2022/10/28 07:35:16;;;;;;;;;;;16.70;99.90;;;;;;5064080;28;20836;-73
2022/10/28 07:37:41;;;;;;;;;;;16.70;99.90;;;;;;5063468;28;19916;-73
2022/10/28 07:40:07;;;;;;;;;;;16.80;99.90;;;;;;5082311;28;19919;-73
2022/10/28 07:42:33;;;;;;;;;;;16.90;99.90;;;;;;5081952;28;19912;-73
2022/10/28 07:44:59;;;;;;;;;;;17.00;99.90;;;;;;5080072;28;19943;-74
2022/10/28 07:47:24;;;;;;;;;;;17.10;99.90;;;;;;5077223;28;19919;-74
2022/10/28 07:49:50;;;;;;;;;;;17.10;99.90;;;;;;5066169;28;19913;-72
2022/10/28 07:52:16;;;;;;;;;;;17.20;99.90;;;;;;5092046;28;20496;-74
2022/10/28 07:54:42;;;;;;;;;;;17.30;99.90;;;;;;5075079;28;19908;-74
2022/10/28 07:57:07;;;;;;;;;;;17.40;99.90;;;;;;5066295;28;19912;-72
2022/10/28 07:59:33;;;;;;;;;;;17.50;99.90;;;;;;5066803;28;19916;-72
2022/10/28 08:01:59;;;;;;;;;;;17.60;99.90;;;;;;5073569;28;19934;-73
2022/10/28 08:04:27;;;;;;;;;;;17.70;99.90;;;;;;5076592;28;20011;-72
2022/10/28 08:06:53;;;;;;;;;;;17.70;99.90;;;;;;5068426;28;19912;-73
2022/10/28 08:09:19;;;;;;;;;;;17.80;99.90;;;;;;5086054;28;20278;-75
2022/10/28 08:11:45;;;;;;;;;;;17.90;99.90;;;;;;5085699;28;19954;-71
2022/10/28 08:14:10;;;;;;;;;;;17.90;99.90;;;;;;5084344;28;19974;-73
2022/10/28 08:16:36;;;;;;;;;;;17.90;99.90;;;;;;5067673;28;20358;-71
2022/10/28 08:19:02;;;;;;;;;;;17.90;99.90;;;;;;5085771;28;19908;-71
2022/10/28 08:21:28;;;;;;;;;;;17.90;99.90;;;;;;5085626;28;19918;-71
2022/10/28 08:23:54;;;;;;;;;;;18.00;99.90;;;;;;5073380;28;20437;-71
2022/10/28 08:26:20;;;;;;;;;;;18.10;99.90;;;;;;5080171;28;20023;-71
2022/10/28 08:28:46;;;;;;;;;;;18.10;99.90;;;;;;5071384;28;19921;-72
2022/10/28 08:31:12;;;;;;;;;;;18.10;99.90;;;;;;5081357;28;20321;-71
2022/10/28 08:33:39;;;;;;;;;;;18.10;99.90;;;;;;5070190;28;20321;-71
2022/10/28 08:36:06;;;;;;;;;;;18.20;99.90;;;;;;5061670;28;19913;-72
2022/10/28 08:38:32;;;;;;;;;;;18.20;99.90;;;;;;5065976;28;19912;-71
2022/10/28 08:40:57;;;;;;;;;;;18.30;99.90;;;;;;5054944;28;19912;-72
2022/10/28 08:43:39;;;;;;;;;;;18.40;99.90;;;;;;5049258;28;19912;-72
2022/10/28 08:46:13;;;;;;;;;;;18.40;99.90;;;;;;5077048;28;19913;-72
2022/10/28 08:48:39;;;;;;;;;;;18.50;99.90;;;;;;5076156;28;19916;-71
2022/10/28 08:51:08;;;;;;;;;;;18.50;99.90;;;;;;5084101;28;19923;-71
2022/10/28 08:53:39;;;;;;;;;;;18.50;99.90;;;;;;5079771;28;19923;-71
2022/10/28 08:56:24;;;;;;;;;;;18.60;99.90;;;;;;5067108;28;20007;-71
2022/10/28 08:58:53;;;;;;;;;;;18.60;99.90;;;;;;5080461;28;19916;-71
2022/10/28 09:01:35;;;;;;;;;;;18.70;99.90;;;;;;5082035;28;19924;-71
2022/10/28 09:04:04;;;;;;;;;;;18.80;99.90;;;;;;5079023;28;19922;-71
2022/10/28 09:06:29;;;;;;;;;;;18.80;99.90;;;;;;5081241;28;19919;-71
2022/10/28 09:08:57;;;;;;;;;;;18.80;99.90;;;;;;5091474;28;19912;-71
2022/10/28 09:11:29;;;;;;;;;;;18.90;99.90;;;;;;5078193;28;19920;-71
2022/10/28 09:13:58;;;;;;;;;;;19.00;99.90;;;;;;5078228;28;19912;-71
2022/10/28 09:16:30;;;;;;;;;;;19.10;99.90;;;;;;5060983;28;19912;-72
2022/10/28 09:18:57;;;;;;;;;;;19.10;99.90;;;;;;5071564;28;19916;-72
2022/10/28 09:21:35;;;;;;;;;;;19.20;99.90;;;;;;5050930;28;19913;-72
2022/10/28 09:24:14;;;;;;;;;;;19.20;99.90;;;;;;5073338;28;19925;-72
2022/10/28 09:26:46;;;;;;;;;;;19.30;99.90;;;;;;5082155;28;19962;-72
2022/10/28 09:29:30;;;;;;;;;;;19.40;99.90;;;;;;5054490;28;19916;-72
2022/10/28 09:32:15;;;;;;;;;;;19.40;99.90;;;;;;5067873;28;19917;-71
2022/10/28 09:34:46;;;;;;;;;;;19.50;99.90;;;;;;5070419;28;19919;-71
2022/10/28 09:37:22;;;;;;;;;;;19.60;99.90;;;;;;5065251;28;19972;-71
2022/10/28 09:39:54;;;;;;;;;;;19.70;99.90;;;;;;5066722;28;19913;-71
2022/10/28 09:42:23;;;;;;;;;;;19.70;99.90;;;;;;5071609;28;19920;-71
2022/10/28 09:44:53;;;;;;;;;;;19.80;99.90;;;;;;5064676;28;19995;-71
2022/10/28 09:47:24;;;;;;;;;;;20.00;99.90;;;;;;5062116;28;19928;-71
2022/10/28 09:49:52;;;;;;;;;;;20.00;99.90;;;;;;5081567;28;19912;-71
2022/10/28 09:52:26;;;;;;;;;;;20.00;99.90;;;;;;5072362;28;19913;-71
2022/10/28 09:54:52;;;;;;;;;;;20.00;99.90;;;;;;5077136;28;19955;-71
2022/10/28 09:57:19;;;;;;;;;;;19.90;99.90;;;;;;5063626;28;19927;-71
2022/10/28 09:59:45;;;;;;;;;;;19.90;99.90;;;;;;5073036;28;20341;-71
2022/10/28 10:02:27;;;;;;;;;;;19.80;99.90;;;;;;5068933;28;19912;-71
2022/10/28 10:04:56;;;;;;;;;;;19.70;99.90;;;;;;5070589;28;19912;-71
2022/10/28 10:07:29;;;;;;;;;;;19.70;99.90;;;;;;5072299;28;20007;-70
2022/10/28 10:09:56;;;;;;;;;;;19.60;99.90;;;;;;5069693;28;19920;-71
2022/10/28 10:12:22;;;;;;;;;;;19.60;99.90;;;;;;5070104;28;20542;-71
2022/10/28 10:14:49;;;;;;;;;;;19.60;99.90;;;;;;5076223;28;19944;-70
2022/10/28 10:17:22;;;;;;;;;;;19.60;99.90;;;;;;5054100;28;19919;-71
2022/10/28 10:20:08;;;;;;;;;;;19.70;99.90;;;;;;5054159;28;19962;-71
2022/10/28 10:22:35;;;;;;;;;;;19.60;99.90;;;;;;5069958;28;19919;-70
2022/10/28 10:25:01;;;;;;;;;;;19.60;99.90;;;;;;5066371;28;19938;-70
2022/10/28 10:27:29;;;;;;;;;;;19.60;99.90;;;;;;5066247;28;20498;-71
2022/10/28 10:29:56;;;;;;;;;;;19.70;99.90;;;;;;5054534;28;20147;-71
2022/10/28 10:32:32;;;;;;;;;;;19.70;99.90;;;;;;5069612;28;19939;-71
2022/10/28 10:35:13;;;;;;;;;;;19.70;99.90;;;;;;5055143;28;20027;-72
2022/10/28 10:37:44;;;;;;;;;;;19.80;99.90;;;;;;5071025;28;19916;-72
2022/10/28 10:40:09;;;;;;;;;;;19.80;99.90;;;;;;5047652;28;19988;-74
2022/10/28 10:42:36;;;;;;;;;;;19.90;99.90;;;;;;5068735;28;19959;-71
2022/10/28 10:45:16;;;;;;;;;;;20.00;99.90;;;;;;5075966;28;19992;-71
2022/10/28 10:47:42;;;;;;;;;;;20.00;99.90;;;;;;5068344;28;19915;-72
2022/10/28 10:50:26;;;;;;;;;;;20.10;99.90;;;;;;5069339;28;19916;-71
2022/10/28 10:52:54;;;;;;;;;;;20.10;99.90;;;;;;5074177;28;19950;-72
2022/10/28 10:55:21;;;;;;;;;;;20.00;99.90;;;;;;5070755;28;19956;-71
2022/10/28 10:57:48;;;;;;;;;;;20.00;99.90;;;;;;5083234;28;19919;-70
2022/10/28 11:00:19;;;;;;;;;;;20.00;99.90;;;;;;5075426;28;19992;-74
2022/10/28 11:02:46;;;;;;;;;;;20.10;99.90;;;;;;5069658;28;20409;-74
2022/10/28 11:05:18;;;;;;;;;;;20.10;99.90;;;;;;5073320;28;19916;-71
2022/10/28 11:07:47;;;;;;;;;;;20.10;99.90;;;;;;5068756;28;19956;-72
2022/10/28 11:10:29;;;;;;;;;;;20.10;99.90;;;;;;5079950;28;19948;-71
2022/10/28 11:13:08;;;;;;;;;;;20.30;99.90;;;;;;5057256;28;20473;-71
2022/10/28 11:15:34;;;;;;;;;;;20.30;99.90;;;;;;5078810;28;19912;-73
2022/10/28 11:17:59;;;;;;;;;;;20.40;99.90;;;;;;5056842;28;19920;-73
2022/10/28 11:20:29;;;;;;;;;;;20.30;99.90;;;;;;5070667;28;19913;-71
2022/10/28 11:23:01;;;;;;;;;;;20.40;99.90;;;;;;5056428;28;19920;-75
2022/10/28 11:25:33;;;;;;;;;;;20.40;99.90;;;;;;5072329;28;19913;-71
2022/10/28 11:28:04;;;;;;;;;;;20.40;99.90;;;;;;5049027;28;19932;-74
2022/10/28 11:30:43;;;;;;;;;;;20.50;99.90;;;;;;5065265;28;20156;-74
2022/10/28 11:33:15;;;;;;;;;;;20.50;99.90;;;;;;5069082;28;19916;-71
2022/10/28 11:35:40;;;;;;;;;;;20.60;99.90;;;;;;5075558;28;19944;-74
2022/10/28 11:38:12;;;;;;;;;;;20.50;99.90;;;;;;5056562;28;19909;-71
2022/10/28 11:40:58;;;;;;;;;;;20.40;99.90;;;;;;5066861;28;19918;-70
2022/10/28 11:43:27;;;;;;;;;;;20.40;99.90;;;;;;5053988;28;19913;-70
2022/10/28 11:45:56;;;;;;;;;;;20.50;99.90;;;;;;5062417;28;19952;-70
2022/10/28 11:48:31;;;;;;;;;;;20.60;99.90;;;;;;5073344;28;19916;-71
2022/10/28 11:51:05;;;;;;;;;;;20.60;99.90;;;;;;5064688;28;19923;-71
2022/10/28 11:53:50;;;;;;;;;;;20.60;99.90;;;;;;5066491;28;19916;-71
2022/10/28 11:56:22;;;;;;;;;;;20.70;99.90;;;;;;5090795;28;19912;-71
2022/10/28 11:59:15;;;;;;;;;;;20.70;99.90;;;;;;5076417;28;19916;-71
2022/10/28 12:01:52;;;;;;;;;;;20.70;99.90;;;;;;5087503;28;19924;-72
2022/10/28 12:04:31;;;;;;;;;;;20.70;99.90;;;;;;5074436;28;19916;-71
2022/10/28 12:07:00;;;;;;;;;;;20.70;99.90;;;;;;5056087;28;19913;-72
2022/10/28 12:09:32;;;;;;;;;;;20.70;99.90;;;;;;5056843;28;19912;-71
2022/10/28 12:12:13;;;;;;;;;;;20.70;99.90;;;;;;5074714;28;19950;-71
2022/10/28 12:14:53;;;;;;;;;;;20.70;99.90;;;;;;5057030;28;19960;-71
2022/10/28 12:17:22;;;;;;;;;;;20.80;99.90;;;;;;5072984;28;19942;-72
2022/10/28 12:19:56;;;;;;;;;;;20.90;99.90;;;;;;5077178;28;19912;-72
2022/10/28 12:22:29;;;;;;;;;;;21.00;99.90;;;;;;5076903;28;19912;-74
2022/10/28 12:24:55;;;;;;;;;;;21.10;99.90;;;;;;5083579;28;19912;-72
2022/10/28 12:27:27;;;;;;;;;;;21.20;99.90;;;;;;5076881;28;19938;-72
2022/10/28 12:30:05;;;;;;;;;;;21.10;99.90;;;;;;5072563;28;19916;-71
2022/10/28 12:32:33;;;;;;;;;;;21.10;99.90;;;;;;5074389;28;19919;-72
2022/10/28 12:35:05;;;;;;;;;;;21.10;99.90;;;;;;5071226;28;19924;-71
2022/10/28 12:37:35;;;;;;;;;;;20.90;99.90;;;;;;5055723;28;19913;-76
2022/10/28 12:40:14;;;;;;;;;;;21.00;99.90;;;;;;5062046;28;20239;-72
2022/10/28 12:42:46;;;;;;;;;;;20.90;99.90;;;;;;5069546;28;19995;-71
2022/10/28 12:45:17;;;;;;;;;;;21.00;99.90;;;;;;5052397;28;19959;-72
2022/10/28 12:47:55;;;;;;;;;;;21.00;99.90;;;;;;5080164;28;19919;-71
2022/10/28 12:50:26;;;;;;;;;;;21.00;99.90;;;;;;5057138;28;19930;-71
2022/10/28 12:53:04;;;;;;;;;;;21.00;99.90;;;;;;5081050;28;19965;-70
2022/10/28 12:55:50;;;;;;;;;;;20.90;99.90;;;;;;5081170;28;19970;-72
2022/10/28 12:58:25;;;;;;;;;;;20.90;99.90;;;;;;5050533;28;19927;-72
2022/10/28 13:00:59;;;;;;;;;;;20.80;99.90;;;;;;5082789;28;19913;-70
2022/10/28 13:03:36;;;;;;;;;;;20.80;99.90;;;;;;5063657;28;19962;-72
2022/10/28 13:06:26;;;;;;;;;;;20.80;99.90;;;;;;5080618;28;19971;-72
2022/10/28 13:09:04;;;;;;;;;;;20.90;99.90;;;;;;5096476;28;19908;-72
2022/10/28 13:11:33;;;;;;;;;;;21.00;99.90;;;;;;5086692;28;19912;-72
2022/10/28 13:14:05;;;;;;;;;;;21.00;99.90;;;;;;5104407;28;19908;-70
2022/10/28 13:16:31;;;;;;;;;;;21.00;99.90;;;;;;5080892;28;19916;-71
2022/10/28 13:19:21;;;;;;;;;;;21.00;99.90;;;;;;5084750;28;19943;-75
2022/10/28 13:21:53;;;;;;;;;;;21.10;99.90;;;;;;5074012;28;19912;-75
2022/10/28 13:24:54;;;;;;;;;;;21.10;99.90;;;;;;5059752;28;19913;-72
2022/10/28 13:27:36;;;;;;;;;;;;;;;;;;;;;
2022/10/28 13:30:08;;;;;;;;;;;21.10;99.90;;;;;;5104633;28;19998;-72
2022/10/28 13:32:54;;;;;;;;;;;21.10;99.90;;;;;;5104012;28;20285;-73
2022/10/28 13:35:29;;;;;;;;;;;21.10;99.90;;;;;;5077790;28;20371;-73
2022/10/28 13:38:01;;;;;;;;;;;21.00;99.90;;;;;;5085942;28;19908;-72
2022/10/28 13:40:33;;;;;;;;;;;20.90;99.90;;;;;;5104188;28;19908;-72
2022/10/28 13:43:02;;;;;;;;;;;20.90;99.90;;;;;;5103204;28;19908;-72
2022/10/28 13:45:47;;;;;;;;;;;20.90;99.90;;;;;;5091781;28;19913;-72
2022/10/28 13:48:34;;;;;;;;;;;20.90;99.90;;;;;;5085721;28;19935;-72
2022/10/28 13:51:15;;;;;;;;;;;21.00;99.90;;;;;;5103240;28;20054;-72
2022/10/28 13:53:49;;;;;;;;;;;21.00;99.90;;;;;;5084756;28;19912;-72
2022/10/28 13:56:41;;;;;;;;;;;21.10;99.90;;;;;;5073410;28;19916;-72
2022/10/28 13:59:25;;;;;;;;;;;21.20;99.90;;;;;;5056627;28;19916;-72
2022/10/28 14:02:03;;;;;;;;;;;21.20;99.90;;;;;;5085451;28;20028;-73
2022/10/28 14:04:42;;;;;;;;;;;21.10;99.90;;;;;;5081431;28;19927;-71
2022/10/28 14:07:29;;;;;;;;;;;21.20;99.90;;;;;;5083372;28;19916;-72
2022/10/28 14:10:15;;;;;;;;;;;21.10;99.90;;;;;;5101993;28;19929;-72
2022/10/28 14:12:54;;;;;;;;;;;21.10;99.90;;;;;;5064759;28;19955;-72
2022/10/28 14:15:40;;;;;;;;;;;21.10;99.90;;;;;;5074781;28;19963;-76
2022/10/28 14:18:25;;;;;;;;;;;21.10;99.90;;;;;;5088102;28;20049;-74
2022/10/28 14:20:53;;;;;;;;;;;21.10;99.90;;;;;;5106857;28;19908;-72
2022/10/28 14:23:42;;;;;;;;;;;21.00;99.90;;;;;;5107628;28;19908;-72
2022/10/28 14:26:13;;;;;;;;;;;21.00;99.90;;;;;;5079234;28;20321;-72
2022/10/28 14:28:45;;;;;;;;;;;21.10;99.90;;;;;;5086503;28;19912;-70
2022/10/28 14:31:11;;;;;;;;;;;21.00;99.90;;;;;;5098940;28;19923;-72
2022/10/28 14:33:44;;;;;;;;;;;21.10;99.90;;;;;;5080035;28;19994;-72
2022/10/28 14:36:13;;;;;;;;;;;21.10;99.90;;;;;;5082253;28;19954;-72
2022/10/28 14:38:38;;;;;;;;;;;21.00;99.90;;;;;;5093034;28;20004;-71
2022/10/28 14:41:05;;;;;;;;;;;21.00;99.90;;;;;;5098067;28;19935;-72
2022/10/28 14:43:56;;;;;;;;;;;21.00;99.90;;;;;;5079888;28;19912;-73
2022/10/28 14:46:41;;;;;;;;;;;21.00;99.90;;;;;;5035507;28;19965;-72
2022/10/28 14:49:26;;;;;;;;;;;21.00;99.90;;;;;;5078016;28;19909;-72
2022/10/28 14:51:52;;;;;;;;;;;21.10;99.90;;;;;;5077240;28;20374;-72
2022/10/28 14:54:38;;;;;;;;;;;21.20;99.90;;;;;;5091601;28;19944;-72
2022/10/28 14:57:04;;;;;;;;;;;21.20;99.90;;;;;;5038992;28;19962;-72
2022/10/28 14:59:38;;;;;;;;;;;21.20;99.90;;;;;;5058940;28;20302;-72
2022/10/28 15:02:15;;;;;;;;;;;21.20;99.90;;;;;;5076831;28;19920;-72